Terminal Aerodrome Forecast
Issued by NWS Upton, NY

Home | Current Version | Previous Version | Text Only | Print | Product List | Glossary On
Versions: 1 2 3 4 5 6 7 8 9 10 11 12 13 14 15 16 17 18 19 20 21 22 23 24 25 26 27 28 29 30 31 32
000
FTUS41 KOKX 281320 AAA
TAFEWR
TAF AMD
KEWR 281320Z 2813/2918 02010KT P6SM SCT010 BKN250
      TEMPO 2814/2816 BKN010
     FM281600 06011G17KT P6SM OVC025
     FM281900 06012G19KT P6SM -DZ OVC020
     FM290300 05013G20KT P6SM -DZ OVC015=

USA.gov is the U.S. government's official web portal to all federal, state and local government web resources and services.